Ambler, Alaska
Current Conditions -  °F | °C
As of 5:16 PM on Friday 19 Dec 2014 (Local Time) from PAFM Reporting Station
Clear Clear  
Wind Chill: -22°   Ceiling: Unl
Heat Index: -13°   Visibility: 10mi
Dew Point: -17°   Wind: 15mph
Humidity: 73%   Direction: 30°NNE
Pressure: 29.42"   Gusts: NA
Location:  67.09°N, 157.85°W
Report Text: PAFM 200216Z AUTO 03013KT 10SM CLR M13/M17 A2942 RMK AO1
Loading
Personal Weather Stations






























Interactive Weather Map New forecast layout! Learn more

10-Day Weather Forecast

Advertisements
Track Severe Weather on mobile